Time;durP1;ratioP1;P1;durP2;ratioP2;P2;SDS_P1;SDS_P2;PMS_P1;PMS_P2;Temp;Humidity;BMP_temperature;BMP_pressure;BME280_temperature;BME280_humidity;BME280_pressure;Samples;Min_cycle;Max_cycle;Signal;HPM_P1;HPM_P2
2022/03/15 00:00:24;;;;;;;47.28;23.05;;;;;;;-3.77;66.90;95068.56;5110886;28;20545;-39
2022/03/15 00:02:50;;;;;;;45.35;22.08;;;;;;;-3.77;68.14;95063.16;5104204;28;20024;-39
2022/03/15 00:05:19;;;;;;;53.70;23.67;;;;;;;-3.79;67.42;95056.66;5072446;28;20024;-39
2022/03/15 00:07:45;;;;;;;45.15;21.00;;;;;;;-3.78;67.46;95060.88;5090246;28;20036;-39
2022/03/15 00:10:15;;;;;;;35.45;19.92;;;;;;;-3.91;67.29;95066.16;5086730;28;20405;-39
2022/03/15 00:12:41;;;;;;;35.03;19.75;;;;;;;-4.05;68.11;95066.44;5070202;28;20119;-39
2022/03/15 00:15:10;;;;;;;44.42;17.80;;;;;;;-4.33;68.76;95045.41;5069917;28;20090;-39
2022/03/15 00:17:36;;;;;;;23.77;13.85;;;;;;;-4.17;68.05;95070.50;5070194;28;20020;-39
2022/03/15 00:20:07;;;;;;;20.50;11.05;;;;;;;-4.46;68.38;95068.78;5069743;28;20490;-39
2022/03/15 00:22:35;;;;;;;22.25;12.10;;;;;;;-4.68;69.44;95071.81;5077049;28;20031;-40
2022/03/15 00:25:02;;;;;;;38.95;20.23;;;;;;;-4.74;70.44;95065.38;5090277;28;20028;-40
2022/03/15 00:27:28;;;;;;;29.08;16.20;;;;;;;-4.79;71.32;95059.72;5090148;28;20035;-39
2022/03/15 00:29:53;;;;;;;29.63;13.32;;;;;;;-4.77;71.44;95049.31;5093977;28;20028;-39
2022/03/15 00:32:19;;;;;;;28.00;13.30;;;;;;;-4.54;70.81;95051.19;5094292;28;20035;-40
2022/03/15 00:34:47;;;;;;;26.73;12.75;;;;;;;-4.62;70.70;95048.66;5094225;28;20024;-40
2022/03/15 00:37:13;;;;;;;23.08;13.10;;;;;;;-4.91;71.22;95055.69;5094070;28;20024;-39
2022/03/15 00:39:38;;;;;;;20.33;12.88;;;;;;;-4.78;70.93;95053.91;5093877;28;20559;-40
2022/03/15 00:42:04;;;;;;;18.73;10.75;;;;;;;-4.56;70.12;95058.94;5075633;28;20034;-40
2022/03/15 00:44:29;;;;;;;33.17;16.73;;;;;;;-4.42;70.39;95062.16;5094005;28;20032;-40
2022/03/15 00:46:55;;;;;;;30.15;15.43;;;;;;;-4.25;68.98;95055.66;5093614;28;20516;-40
2022/03/15 00:49:20;;;;;;;25.85;13.45;;;;;;;-4.12;68.21;95051.16;5093875;28;20027;-39
2022/03/15 00:51:45;;;;;;;24.75;13.68;;;;;;;-4.43;69.04;95044.44;5093614;28;20085;-40
2022/03/15 00:54:11;;;;;;;19.90;12.15;;;;;;;-4.45;68.75;95037.94;5093590;28;20031;-40
2022/03/15 00:56:36;;;;;;;16.17;9.55;;;;;;;-4.34;67.79;95041.19;5093223;28;20040;-39
2022/03/15 00:59:02;;;;;;;15.75;9.75;;;;;;;-4.45;68.05;95032.53;5093474;28;20028;-40
2022/03/15 01:01:27;;;;;;;17.13;10.82;;;;;;;-4.60;67.92;95034.75;5093654;28;20020;-40
2022/03/15 01:03:53;;;;;;;19.63;9.32;;;;;;;-4.72;68.05;95027.28;5078126;28;20089;-40
2022/03/15 01:06:18;;;;;;;14.00;9.00;;;;;;;-4.59;69.49;95030.88;5073272;28;20023;-40
2022/03/15 01:08:44;;;;;;;25.63;13.20;;;;;;;-4.43;68.59;95030.19;5072908;28;20051;-40
2022/03/15 01:11:09;;;;;;;37.83;20.42;;;;;;;-4.40;67.84;95040.94;5072938;28;20020;-39
2022/03/15 01:13:35;;;;;;;37.22;21.42;;;;;;;-4.49;68.58;95038.00;5072868;28;20028;-40
2022/03/15 01:16:00;;;;;;;28.83;17.23;;;;;;;-4.36;68.04;95035.47;5072875;28;20016;-39
2022/03/15 01:18:26;;;;;;;36.25;17.42;;;;;;;-4.64;69.31;95025.97;5076941;28;20027;-39
2022/03/15 01:20:51;;;;;;;27.10;13.88;;;;;;;-4.91;70.67;95022.59;5093291;28;20039;-39
2022/03/15 01:23:17;;;;;;;20.40;11.65;;;;;;;-4.90;70.49;95024.13;5093088;28;20020;-40
2022/03/15 01:25:43;;;;;;;17.08;10.30;;;;;;;-4.97;71.24;95016.16;5092856;28;20032;-40
2022/03/15 01:28:08;;;;;;;17.33;9.48;;;;;;;-4.80;70.35;95015.84;5093114;28;20107;-40
2022/03/15 01:30:34;;;;;;;20.90;11.77;;;;;;;-4.95;69.65;95019.19;5093073;28;20024;-40
2022/03/15 01:32:59;;;;;;;36.95;19.65;;;;;;;-4.90;70.51;94999.88;5093109;28;20039;-39
2022/03/15 01:35:25;;;;;;;30.48;18.10;;;;;;;-4.70;70.27;95022.97;5092812;28;20023;-39
2022/03/15 01:37:50;;;;;;;37.95;18.83;;;;;;;-4.69;69.61;95021.81;5074719;28;20481;-39
2022/03/15 01:40:15;;;;;;;42.80;21.65;;;;;;;-4.68;68.55;95022.59;5095753;28;20028;-40
2022/03/15 01:42:41;;;;;;;30.48;18.02;;;;;;;-4.70;68.87;95022.97;5112973;28;20028;-40
2022/03/15 01:45:08;;;;;;;38.78;20.05;;;;;;;-4.81;68.31;95027.78;5113207;28;20031;-39
2022/03/15 01:47:33;;;;;;;20.95;12.93;;;;;;;-5.24;69.70;95028.94;5113116;28;20020;-39
2022/03/15 01:49:59;;;;;;;23.65;13.15;;;;;;;-5.24;70.51;95035.06;5113181;28;20084;-40
2022/03/15 01:52:25;;;;;;;16.70;11.00;;;;;;;-5.44;70.14;95007.34;5113041;28;20019;-40
2022/03/15 01:54:50;;;;;;;16.60;10.32;;;;;;;-5.40;69.82;95018.81;5113049;28;20034;-39
2022/03/15 01:57:16;;;;;;;16.92;11.07;;;;;;;-5.07;68.74;95031.34;5112504;28;20051;-39
2022/03/15 01:59:42;;;;;;;19.75;12.30;;;;;;;-5.26;69.47;95033.97;5112963;28;20035;-40
2022/03/15 02:02:09;;;;;;;24.88;12.95;;;;;;;-5.00;68.53;95025.09;5112085;28;20055;-39
2022/03/15 02:04:36;;;;;;;22.05;13.15;;;;;;;-5.02;68.51;95009.31;5092440;28;20504;-40
2022/03/15 02:07:06;;;;;;;17.60;10.52;;;;;;;-4.85;69.18;95034.44;5092043;28;20036;-40
2022/03/15 02:09:32;;;;;;;18.75;8.80;;;;;;;-4.88;69.00;95044.09;5091981;28;20123;-39
2022/03/15 02:11:58;;;;;;;17.95;9.73;;;;;;;-5.15;68.94;95048.78;5073337;28;20028;-40
2022/03/15 02:14:24;;;;;;;14.77;8.65;;;;;;;-5.18;69.97;95046.91;5073469;28;20024;-40
2022/03/15 02:16:50;;;;;;;17.80;9.02;;;;;;;-5.07;69.63;95042.13;5091951;28;20020;-39
2022/03/15 02:19:15;;;;;;;14.65;8.80;;;;;;;-5.48;69.57;95039.66;5091845;28;20039;-39
2022/03/15 02:21:41;;;;;;;14.90;8.63;;;;;;;-5.29;71.03;95038.25;5091798;28;20024;-39
2022/03/15 02:24:06;;;;;;;17.75;9.80;;;;;;;-5.24;71.62;95045.81;5091873;28;20027;-39
2022/03/15 02:26:32;;;;;;;13.02;8.82;;;;;;;-5.12;70.73;95039.88;5073924;28;20031;-40
2022/03/15 02:28:57;;;;;;;19.15;11.02;;;;;;;-5.45;70.62;95021.94;5092115;28;20413;-40
2022/03/15 02:31:24;;;;;;;15.30;9.80;;;;;;;-5.61;71.00;95029.88;5091676;28;20436;-39
2022/03/15 02:33:50;;;;;;;15.98;8.07;;;;;;;-5.69;71.32;95025.75;5091804;28;20035;-40
2022/03/15 02:36:16;;;;;;;9.82;6.60;;;;;;;-5.59;69.80;95027.56;5091579;28;20028;-40
2022/03/15 02:38:44;;;;;;;13.07;7.20;;;;;;;-5.57;69.38;95035.97;5091819;28;20034;-40
2022/03/15 02:41:10;;;;;;;14.63;7.97;;;;;;;-5.64;68.90;95028.78;5103479;28;20027;-40
2022/03/15 02:43:36;;;;;;;14.40;8.30;;;;;;;-5.71;68.47;95004.66;5112036;28;20066;-39
2022/03/15 02:46:02;;;;;;;16.95;10.48;;;;;;;-5.40;68.24;95024.94;5112017;28;20111;-40
2022/03/15 02:48:27;;;;;;;20.13;11.68;;;;;;;-5.67;68.80;95015.34;5111583;28;20481;-39
2022/03/15 02:50:54;;;;;;;24.83;13.63;;;;;;;-5.92;70.07;95014.97;5111475;28;20016;-40
2022/03/15 02:53:19;;;;;;;21.92;10.90;;;;;;;-5.91;70.32;95022.63;5111612;28;20547;-40
2022/03/15 02:55:46;;;;;;;24.38;14.55;;;;;;;-5.92;70.19;94999.63;5111458;28;20024;-40
2022/03/15 02:58:12;;;;;;;34.53;17.67;;;;;;;-5.64;70.24;95022.63;5111320;28;20448;-39
2022/03/15 03:00:38;;;;;;;53.78;24.42;;;;;;;-5.75;69.97;95017.41;5111730;28;20035;-40
2022/03/15 03:03:03;;;;;;;54.53;24.20;;;;;;;-5.47;69.53;95008.13;5102929;28;20053;-39
2022/03/15 03:05:29;;;;;;;43.53;22.25;;;;;;;-5.38;69.45;95017.22;5091347;28;20016;-39
2022/03/15 03:07:54;;;;;;;44.15;22.90;;;;;;;-5.43;69.30;95015.00;5090797;28;20016;-40
2022/03/15 03:10:21;;;;;;;40.30;20.60;;;;;;;-5.53;69.87;95017.84;5086208;28;20032;-39
2022/03/15 03:12:47;;;;;;;35.92;17.85;;;;;;;-5.58;69.49;95020.97;5090169;28;20103;-39
2022/03/15 03:15:13;;;;;;;31.65;17.48;;;;;;;-5.71;69.23;95020.03;5091071;28;20031;-39
2022/03/15 03:17:42;;;;;;;26.92;16.52;;;;;;;-5.93;69.37;94995.38;5090852;28;20605;-40
2022/03/15 03:20:12;;;;;;;20.60;11.60;;;;;;;-5.85;69.24;94991.47;5090749;28;20070;-39
2022/03/15 03:22:39;;;;;;;23.15;11.32;;;;;;;-5.85;68.73;95012.19;5090996;28;20020;-39
2022/03/15 03:25:05;;;;;;;17.23;10.88;;;;;;;-5.79;69.64;95011.31;5090928;28;20020;-39
2022/03/15 03:27:31;;;;;;;25.38;12.77;;;;;;;-5.72;69.36;94989.69;5090859;28;20085;-40
2022/03/15 03:29:58;;;;;;;25.90;13.73;;;;;;;-5.55;69.00;95015.56;5090968;28;20028;-39
2022/03/15 03:32:27;;;;;;;24.90;13.05;;;;;;;-5.68;69.10;95008.47;5090805;28;20066;-40
2022/03/15 03:34:53;;;;;;;;;;;;;;;-6.01;69.62;95002.03;5091078;28;20035;-40
2022/03/15 03:37:18;;;;;;;17.75;11.65;;;;;;;-5.96;69.78;94993.53;5090494;28;19974;-39
2022/03/15 03:39:44;;;;;;;23.05;12.13;;;;;;;-6.03;68.58;94993.63;5090419;28;20107;-39
2022/03/15 03:42:09;;;;;;;13.85;8.15;;;;;;;-5.92;69.91;94993.47;5090481;28;20024;-40
2022/03/15 03:44:36;;;;;;;16.65;9.00;;;;;;;-5.87;68.07;94984.97;5090618;28;20028;-40
2022/03/15 03:47:02;;;;;;;18.80;9.23;;;;;;;-5.91;67.69;94995.75;5090328;28;20020;-40
2022/03/15 03:49:29;;;;;;;16.88;11.20;;;;;;;-5.73;67.86;94998.91;5090607;28;20463;-39
2022/03/15 03:51:55;;;;;;;22.05;13.20;;;;;;;-5.80;68.22;94999.00;5090277;28;20609;-40
2022/03/15 03:54:21;;;;;;;30.70;15.02;;;;;;;-5.73;67.45;94998.16;5090605;28;20105;-39
2022/03/15 03:56:46;;;;;;;30.58;13.90;;;;;;;-5.70;67.64;94990.06;5089991;28;20433;-40
2022/03/15 03:59:12;;;;;;;22.83;12.43;;;;;;;-5.79;68.32;94987.09;5090297;28;20042;-40
2022/03/15 04:01:39;;;;;;;24.08;12.07;;;;;;;-5.69;68.21;94996.16;5090480;28;20028;-40
2022/03/15 04:04:05;;;;;;;24.95;12.35;;;;;;;-5.86;69.11;94998.00;5096529;28;20024;-40
2022/03/15 04:06:35;;;;;;;28.23;12.32;;;;;;;-6.21;70.04;95004.59;5097118;28;20467;-40
2022/03/15 04:09:02;;;;;;;19.75;10.93;;;;;;;-6.06;69.84;95004.44;5096785;28;20479;-39
2022/03/15 04:11:29;;;;;;;25.45;13.80;;;;;;;-5.94;69.67;94993.13;5097079;28;20443;-40
2022/03/15 04:13:56;;;;;;;21.02;12.23;;;;;;;-6.31;70.07;94996.69;5097122;28;20047;-39
2022/03/15 04:16:22;;;;;;;21.90;12.80;;;;;;;-6.34;71.27;94995.56;5097110;28;20038;-40
2022/03/15 04:18:47;;;;;;;19.38;10.70;;;;;;;-6.13;70.77;95010.66;5097108;28;20473;-39
2022/03/15 04:21:13;;;;;;;15.57;10.48;;;;;;;-6.01;69.60;95012.03;5096775;28;20073;-39
2022/03/15 04:23:38;;;;;;;21.17;10.20;;;;;;;-6.05;68.47;95003.25;5096787;28;20019;-39
2022/03/15 04:26:05;;;;;;;25.17;13.07;;;;;;;-6.01;68.61;95014.72;5078728;28;20020;-39
2022/03/15 04:28:30;;;;;;;22.20;12.75;;;;;;;-6.44;68.91;95017.94;5096974;28;20103;-39
2022/03/15 04:30:56;;;;;;;26.60;13.48;;;;;;;-6.64;69.88;94987.47;5096985;28;20024;-39
2022/03/15 04:33:21;;;;;;;38.15;15.25;;;;;;;-6.47;69.41;95007.22;5096985;28;20422;-39
2022/03/15 04:35:47;;;;;;;28.02;15.23;;;;;;;-6.47;69.57;95005.31;5096739;28;20111;-40
2022/03/15 04:38:12;;;;;;;26.38;15.18;;;;;;;-6.54;69.76;95001.97;5096602;28;20020;-39
2022/03/15 04:40:37;;;;;;;17.65;9.77;;;;;;;-6.64;69.01;95014.34;5095746;28;20024;-39
2022/03/15 04:43:03;;;;;;;16.60;8.30;;;;;;;-6.53;69.45;95000.78;5095749;28;20016;-39
2022/03/15 04:45:28;;;;;;;13.57;8.30;;;;;;;-6.37;69.62;94999.06;5096828;28;20024;-40
2022/03/15 04:47:54;;;;;;;26.25;11.70;;;;;;;-6.37;68.81;95006.34;5096833;28;20053;-39
2022/03/15 04:50:19;;;;;;;23.40;11.88;;;;;;;-6.34;68.23;95011.69;5096866;28;20030;-40
2022/03/15 04:52:45;;;;;;;18.45;10.63;;;;;;;-6.34;68.22;95022.44;5096731;28;20607;-40
2022/03/15 04:55:11;;;;;;;19.88;12.05;;;;;;;-6.62;68.86;95019.28;5096875;28;20012;-39
2022/03/15 04:57:37;;;;;;;30.38;15.20;;;;;;;-6.37;69.77;95028.63;5096350;28;20123;-39
2022/03/15 05:00:08;;;;;;;45.65;17.38;;;;;;;-6.17;69.65;95028.75;5096506;28;20024;-39
2022/03/15 05:02:35;;;;;;;46.20;22.48;;;;;;;-6.09;70.06;95037.50;5092121;28;20016;-40
2022/03/15 05:05:01;;;;;;;43.75;22.10;;;;;;;-6.05;69.63;95041.66;5093586;28;20066;-39
2022/03/15 05:07:26;;;;;;;47.40;23.60;;;;;;;-6.32;71.37;95041.59;5096560;28;20048;-39
2022/03/15 05:12:36;;;;;;;51.97;27.92;;;;;;;-6.38;73.67;95050.50;5076406;28;20086;-42
2022/03/15 05:15:02;;;;;;;43.05;23.65;;;;;;;-6.24;72.68;95042.28;5073667;28;20055;-41
2022/03/15 05:17:29;;;;;;;51.28;22.95;;;;;;;-6.10;72.37;95049.41;5072827;28;20078;-41
2022/03/15 05:19:55;;;;;;;37.70;17.48;;;;;;;-5.95;71.51;95043.44;5072766;28;20052;-41
2022/03/15 05:22:21;;;;;;;33.67;18.13;;;;;;;-5.98;70.49;95038.88;5073075;28;20021;-41
2022/03/15 05:24:46;;;;;;;48.50;26.65;;;;;;;-5.86;69.75;95030.25;5072959;28;20413;-42
2022/03/15 05:27:12;;;;;;;58.40;30.92;;;;;;;-5.79;70.18;95027.44;5055080;28;20483;-41
2022/03/15 05:29:37;;;;;;;73.40;33.17;;;;;;;-5.72;70.03;95030.03;5072851;28;20043;-41
2022/03/15 05:32:03;;;;;;;73.10;35.63;;;;;;;-5.65;69.13;95034.56;5072673;28;20039;-40
2022/03/15 05:34:29;;;;;;;72.90;38.50;;;;;;;-5.53;67.87;95032.06;5072820;28;20033;-40
2022/03/15 05:36:54;;;;;;;69.05;34.40;;;;;;;-5.53;68.03;95028.59;5072769;28;20013;-40
2022/03/15 05:39:19;;;;;;;64.00;34.05;;;;;;;-5.32;68.01;95032.88;5072782;28;20051;-41
2022/03/15 05:41:45;;;;;;;70.35;35.25;;;;;;;-5.45;69.40;95036.16;5089077;28;20508;-41
2022/03/15 05:44:13;;;;;;;78.85;33.22;;;;;;;-5.46;69.40;95040.00;5092598;28;20024;-41
2022/03/15 05:46:39;;;;;;;59.58;28.42;;;;;;;-5.16;69.21;95041.09;5092464;28;20084;-40
2022/03/15 05:49:04;;;;;;;102.85;39.42;;;;;;;-5.17;70.91;95039.56;5092461;28;20110;-40
2022/03/15 05:51:30;;;;;;;72.63;35.15;;;;;;;-5.24;71.47;95040.44;5092460;28;20034;-40
2022/03/15 05:53:55;;;;;;;44.10;23.77;;;;;;;-5.45;72.36;95038.09;5092409;28;20016;-40
2022/03/15 05:56:20;;;;;;;47.70;24.40;;;;;;;-5.09;72.89;95046.38;5092484;28;20044;-40
2022/03/15 05:58:46;;;;;;;41.75;21.10;;;;;;;-4.87;71.54;95039.44;5092530;28;20039;-41
2022/03/15 06:01:12;;;;;;;37.05;20.70;;;;;;;-4.70;71.87;95043.78;5092195;28;20031;-41
2022/03/15 06:03:38;;;;;;;37.67;19.33;;;;;;;-4.54;72.78;95037.72;5092464;28;20028;-41
2022/03/15 06:06:03;;;;;;;37.50;20.23;;;;;;;-4.02;72.67;95034.00;5092267;28;20050;-41
2022/03/15 06:08:29;;;;;;;28.58;17.90;;;;;;;-3.22;70.78;95046.88;5092305;28;20020;-41
2022/03/15 06:10:55;;;;;;;35.92;20.92;;;;;;;-2.48;68.45;95044.28;5082264;28;20021;-41
2022/03/15 06:13:20;;;;;;;24.73;13.90;;;;;;;-1.66;66.26;95041.63;5072117;28;20029;-41
2022/03/15 06:15:46;;;;;;;21.80;10.88;;;;;;;-0.82;64.10;95045.59;5071955;28;20025;-41
2022/03/15 06:18:11;;;;;;;49.65;22.88;;;;;;;-0.38;62.37;95047.22;5072052;28;20036;-41
2022/03/15 06:20:37;;;;;;;24.95;14.65;;;;;;;-0.24;62.10;95046.72;5071933;28;20028;-41
2022/03/15 06:23:03;;;;;;;74.68;32.92;;;;;;;-0.41;63.83;95029.09;5071993;28;20474;-41
2022/03/15 06:25:30;;;;;;;48.00;24.73;;;;;;;0.02;62.91;95043.94;5071333;28;20429;-41
2022/03/15 06:27:55;;;;;;;71.03;34.38;;;;;;;0.87;61.70;95042.28;5071713;28;20111;-41
2022/03/15 06:30:21;;;;;;;54.65;28.67;;;;;;;2.10;58.90;95033.72;5071901;28;20592;-41
2022/03/15 06:32:46;;;;;;;28.30;16.40;;;;;;;3.32;54.82;95036.66;5071352;28;20024;-41
2022/03/15 06:35:13;;;;;;;37.80;19.48;;;;;;;4.39;51.15;95022.66;5071446;28;20048;-41
2022/03/15 06:37:50;;;;;;;46.85;26.30;;;;;;;4.99;49.79;95044.81;5071331;28;20032;-42
2022/03/15 06:40:22;;;;;;;75.13;44.45;;;;;;;4.75;48.96;95040.66;5075428;28;20012;-41
2022/03/15 06:42:48;;;;;;;36.78;23.65;;;;;;;4.53;49.47;95047.25;5091450;28;20103;-41
2022/03/15 06:45:13;;;;;;;78.10;43.70;;;;;;;5.31;47.92;95040.28;5091369;28;20157;-41
2022/03/15 06:47:39;;;;;;;39.55;25.85;;;;;;;6.50;44.79;95037.31;5091284;28;20133;-41
2022/03/15 06:50:09;;;;;;;23.20;15.43;;;;;;;7.82;41.79;95034.81;5091275;28;20047;-41
2022/03/15 06:52:36;;;;;;;19.85;13.38;;;;;;;9.00;39.15;95035.44;5091515;28;20051;-41
2022/03/15 06:55:02;;;;;;;23.50;15.27;;;;;;;10.13;37.32;95030.03;5091509;28;20050;-42
2022/03/15 06:57:28;;;;;;;21.70;13.05;;;;;;;11.36;34.56;95025.22;5090857;28;20032;-41
2022/03/15 06:59:56;;;;;;;17.20;12.82;;;;;;;12.16;32.80;95031.00;5091157;28;20016;-40
2022/03/15 07:02:22;;;;;;;20.00;13.45;;;;;;;13.13;31.72;95031.47;5088850;28;20109;-40
2022/03/15 07:04:47;;;;;;;21.27;13.38;;;;;;;14.13;29.57;95033.28;5052951;28;20063;-39
2022/03/15 07:07:14;;;;;;;18.70;12.02;;;;;;;14.62;28.56;95025.25;5070955;28;20031;-40
2022/03/15 07:09:40;;;;;;;25.60;16.70;;;;;;;13.72;28.42;95030.25;5071011;28;20027;-40
2022/03/15 07:12:06;;;;;;;19.77;15.18;;;;;;;12.55;29.92;95039.56;5070686;28;20033;-40
2022/03/15 07:14:31;;;;;;;18.13;14.73;;;;;;;13.88;28.96;95042.34;5070663;28;20044;-40
2022/03/15 07:16:57;;;;;;;30.55;15.75;;;;;;;14.95;27.92;95046.03;5070555;28;20017;-40
2022/03/15 07:19:22;;;;;;;19.08;13.90;;;;;;;15.49;26.77;95037.72;5070884;28;20016;-40
2022/03/15 07:21:48;;;;;;;25.30;16.35;;;;;;;15.75;25.55;95039.59;5070569;28;20028;-40
2022/03/15 07:24:13;;;;;;;22.70;15.32;;;;;;;16.02;25.46;95035.38;5070826;28;20402;-40
2022/03/15 07:26:39;;;;;;;24.45;15.60;;;;;;;15.96;25.27;95040.31;5070670;28;20031;-40
2022/03/15 07:29:04;;;;;;;20.02;14.18;;;;;;;16.18;25.29;95036.94;5070682;28;20486;-40
2022/03/15 07:31:30;;;;;;;17.13;12.30;;;;;;;15.82;24.80;95036.13;5070717;28;20494;-40
2022/03/15 07:33:56;;;;;;;20.90;14.18;;;;;;;16.59;24.50;95036.84;5070292;28;20413;-40
2022/03/15 07:36:22;;;;;;;24.48;16.20;;;;;;;16.25;24.89;95041.84;5070454;28;20031;-40
2022/03/15 07:38:48;;;;;;;12.82;8.10;;;;;;;16.84;24.35;95039.19;5069373;28;20016;-40
2022/03/15 07:41:16;;;;;;;15.73;11.40;;;;;;;18.00;22.83;95046.69;5082576;28;20024;-40
2022/03/15 07:43:41;;;;;;;9.23;8.18;;;;;;;18.32;22.06;95046.84;5090400;28;20552;-40
2022/03/15 07:46:07;;;;;;;12.18;7.40;;;;;;;18.38;21.31;95041.81;5090682;28;20028;-41
2022/03/15 07:48:33;;;;;;;10.95;7.53;;;;;;;17.64;21.85;95052.47;5090608;28;20028;-41
2022/03/15 07:50:58;;;;;;;10.25;8.38;;;;;;;17.73;22.11;95046.31;5090605;28;20508;-42
2022/03/15 07:53:24;;;;;;;10.68;7.97;;;;;;;16.42;23.04;95044.91;5090267;28;20085;-41
2022/03/15 07:55:49;;;;;;;14.65;7.82;;;;;;;17.85;22.13;95049.47;5090548;28;20024;-40
2022/03/15 07:58:14;;;;;;;9.98;6.78;;;;;;;18.00;21.24;95041.84;5090176;28;20039;-40
2022/03/15 08:00:40;;;;;;;9.85;8.20;;;;;;;18.49;20.96;95038.66;5090326;28;20460;-40
2022/03/15 08:03:05;;;;;;;17.88;13.25;;;;;;;17.72;21.28;95039.25;5081811;28;20452;-40
2022/03/15 08:05:31;;;;;;;14.98;10.02;;;;;;;18.01;21.48;95031.41;5070009;28;20036;-40
2022/03/15 08:07:56;;;;;;;10.80;8.73;;;;;;;17.44;21.45;95031.72;5069825;28;20077;-40
2022/03/15 08:10:22;;;;;;;11.73;8.35;;;;;;;16.61;22.54;95023.09;5070231;28;20028;-40
2022/03/15 08:12:48;;;;;;;10.43;8.48;;;;;;;17.35;22.66;95032.28;5069936;28;20413;-40
2022/03/15 08:15:13;;;;;;;10.88;8.48;;;;;;;17.84;21.73;95029.19;5070219;28;20082;-40
2022/03/15 08:17:40;;;;;;;9.48;8.02;;;;;;;18.55;20.39;95027.25;5069984;28;20070;-40
2022/03/15 08:20:06;;;;;;;10.20;8.55;;;;;;;18.78;20.72;95023.06;5069829;28;20039;-40
2022/03/15 08:22:32;;;;;;;10.93;8.00;;;;;;;19.54;20.64;95020.66;5069805;28;20029;-40
2022/03/15 08:24:58;;;;;;;12.70;9.02;;;;;;;20.29;20.03;95022.13;5070138;28;20059;-40
2022/03/15 08:27:24;;;;;;;14.45;11.25;;;;;;;20.91;19.60;95017.34;5069677;28;20013;-40
2022/03/15 08:29:50;;;;;;;21.00;15.93;;;;;;;20.90;19.21;95010.22;5069874;28;20077;-40
2022/03/15 08:32:15;;;;;;;11.40;9.02;;;;;;;21.00;19.38;95011.06;5069756;28;20661;-40
2022/03/15 08:34:42;;;;;;;15.02;11.60;;;;;;;20.27;18.16;95004.41;5069728;28;20077;-40
2022/03/15 08:37:08;;;;;;;16.00;11.57;;;;;;;21.23;18.20;95010.78;5070030;28;20078;-40
2022/03/15 08:39:33;;;;;;;11.82;9.82;;;;;;;19.44;19.79;95007.84;5069668;28;20430;-40
2022/03/15 08:41:59;;;;;;;14.45;10.20;;;;;;;20.52;19.65;94991.03;5088266;28;20099;-40
2022/03/15 08:44:24;;;;;;;13.35;11.52;;;;;;;21.02;19.98;95009.16;5090082;28;20481;-39
2022/03/15 08:46:50;;;;;;;12.27;10.07;;;;;;;20.76;18.69;95004.25;5089734;28;20024;-40
2022/03/15 08:49:17;;;;;;;13.80;11.05;;;;;;;20.17;19.79;95006.31;5091415;28;20100;-39
2022/03/15 08:51:43;;;;;;;15.45;11.52;;;;;;;20.87;19.06;94992.50;5093903;28;20121;-40
2022/03/15 08:54:08;;;;;;;11.20;8.57;;;;;;;19.71;18.85;94989.13;5093488;28;20020;-40
2022/03/15 08:56:35;;;;;;;12.07;9.57;;;;;;;18.81;19.82;94996.00;5093552;28;20052;-40
2022/03/15 08:59:01;;;;;;;14.07;10.73;;;;;;;18.75;21.15;94995.47;5093487;28;20020;-39
2022/03/15 09:01:27;;;;;;;14.52;10.90;;;;;;;20.50;20.15;94976.84;5093389;28;20102;-39
2022/03/15 09:03:52;;;;;;;11.90;10.18;;;;;;;21.52;19.50;94973.09;5078204;28;20044;-39
2022/03/15 09:06:17;;;;;;;11.05;8.50;;;;;;;21.88;17.46;94977.97;5073051;28;20035;-40
2022/03/15 09:08:43;;;;;;;13.68;10.82;;;;;;;21.20;18.39;94969.81;5073237;28;20044;-40
2022/03/15 09:11:09;;;;;;;13.40;11.25;;;;;;;21.59;19.42;94971.50;5072873;28;20025;-39
2022/03/15 09:13:35;;;;;;;19.98;14.68;;;;;;;21.74;19.33;94974.06;5073247;28;20025;-40
2022/03/15 09:16:01;;;;;;;10.93;7.68;;;;;;;22.71;16.11;94976.50;5073231;28;20074;-40
2022/03/15 09:18:27;;;;;;;12.18;8.00;;;;;;;23.59;15.30;94970.88;5072829;28;20013;-40
2022/03/15 09:20:53;;;;;;;8.60;7.68;;;;;;;24.18;13.87;94970.03;5072867;28;20031;-40
2022/03/15 09:23:19;;;;;;;10.15;7.95;;;;;;;24.36;14.44;94968.44;5072709;28;20054;-40
2022/03/15 09:25:44;;;;;;;9.60;7.45;;;;;;;24.25;13.93;94963.47;5073062;28;20110;-40
2022/03/15 09:28:10;;;;;;;6.35;5.65;;;;;;;24.14;13.42;94961.31;5072943;28;20025;-40
2022/03/15 09:30:36;;;;;;;7.68;6.22;;;;;;;24.29;13.40;94966.56;5072663;28;20486;-39
2022/03/15 09:33:02;;;;;;;11.50;9.70;;;;;;;24.72;14.59;94953.91;5072642;28;20028;-40
2022/03/15 09:35:28;;;;;;;7.32;5.43;;;;;;;25.12;13.30;94960.72;5072831;28;20028;-40
2022/03/15 09:37:53;;;;;;;9.02;6.35;;;;;;;25.22;13.09;94953.63;5072598;28;20024;-40
2022/03/15 09:40:25;;;;;;;28.70;16.05;;;;;;;25.54;13.03;94949.28;5077433;28;20024;-40
2022/03/15 09:43:08;;;;;;;19.63;12.95;;;;;;;25.91;13.46;94955.06;5092980;28;20019;-40
2022/03/15 09:45:35;;;;;;;10.48;7.68;;;;;;;25.83;13.06;94946.09;5092569;28;20024;-40
2022/03/15 09:48:03;;;;;;;16.65;13.07;;;;;;;25.89;12.25;94949.28;5092848;28;20398;-40
2022/03/15 09:50:29;;;;;;;11.50;8.50;;;;;;;25.28;12.52;94930.63;5092763;28;20036;-40
2022/03/15 09:52:57;;;;;;;10.65;7.55;;;;;;;25.59;12.20;94936.88;5092524;28;20806;-40
2022/03/15 09:55:25;;;;;;;17.77;7.65;;;;;;;25.84;12.25;94933.41;5092776;28;20416;-40
2022/03/15 09:57:52;;;;;;;7.55;6.38;;;;;;;26.23;11.93;94934.38;5092221;28;20047;-40
2022/03/15 10:00:18;;;;;;;8.95;5.90;;;;;;;26.00;12.56;94928.75;5091355;28;20052;-40
2022/03/15 10:02:44;;;;;;;9.85;7.60;;;;;;;25.55;10.29;94925.31;5086857;28;20024;-40
2022/03/15 10:05:10;;;;;;;9.07;7.13;;;;;;;24.96;11.89;94920.84;5072267;28;20035;-40
2022/03/15 10:07:37;;;;;;;10.50;5.95;;;;;;;25.20;11.57;94919.56;5072200;28;20024;-39
2022/03/15 10:10:07;;;;;;;7.13;5.80;;;;;;;24.52;12.51;94915.84;5071828;28;20067;-40
2022/03/15 10:12:34;;;;;;;10.13;7.20;;;;;;;24.59;13.34;94917.75;5072199;28;20107;-39
2022/03/15 10:15:16;;;;;;;7.80;5.75;;;;;;;24.04;13.70;94918.25;5072044;28;20027;-40
2022/03/15 10:17:56;;;;;;;7.68;5.55;;;;;;;23.97;12.49;94925.56;5071824;28;20226;-40
2022/03/15 10:20:28;;;;;;;6.90;5.78;;;;;;;23.95;13.96;94922.59;5071677;28;20498;-39
2022/03/15 10:23:02;;;;;;;6.25;5.65;;;;;;;24.45;13.77;94911.16;5071957;28;20433;-40
2022/03/15 10:25:29;;;;;;;8.48;5.97;;;;;;;24.68;11.59;94904.88;5071894;28;20070;-40
2022/03/15 10:27:57;;;;;;;9.45;6.05;;;;;;;24.81;11.97;94907.91;5053651;28;20104;-40
2022/03/15 10:30:24;;;;;;;7.43;5.70;;;;;;;25.35;11.98;94907.06;5071854;28;20028;-40
2022/03/15 10:32:50;;;;;;;10.60;6.65;;;;;;;25.54;11.70;94899.09;5071477;28;20025;-40
2022/03/15 10:35:20;;;;;;;7.60;5.88;;;;;;;25.27;11.71;94896.00;5071706;28;20113;-40
2022/03/15 10:37:46;;;;;;;7.70;6.10;;;;;;;25.71;12.07;94895.16;5071619;28;20024;-40
2022/03/15 10:40:12;;;;;;;9.32;6.43;;;;;;;25.03;11.85;94888.06;5075293;28;20031;-40
2022/03/15 10:42:43;;;;;;;12.77;6.78;;;;;;;24.97;11.58;94879.94;5091342;28;20043;-40
2022/03/15 10:45:20;;;;;;;10.80;7.65;;;;;;;24.82;14.09;94883.94;5091707;28;20118;-40
2022/03/15 10:47:53;;;;;;;10.15;7.18;;;;;;;25.22;13.15;94874.47;5091366;28;20133;-40
2022/03/15 10:50:20;;;;;;;10.55;8.30;;;;;;;25.04;13.25;94878.22;5091575;28;20024;-40
2022/03/15 10:52:46;;;;;;;9.07;7.13;;;;;;;24.89;12.55;94870.94;5091538;28;20054;-40
2022/03/15 10:55:18;;;;;;;10.20;7.80;;;;;;;24.99;12.93;94865.94;5091336;28;20046;-40
2022/03/15 10:57:48;;;;;;;11.85;7.75;;;;;;;25.03;11.13;94854.91;5091137;28;20456;-40
2022/03/15 11:00:15;;;;;;;9.40;7.50;;;;;;;24.31;14.09;94865.06;5091321;28;20480;-40
2022/03/15 11:02:44;;;;;;;8.85;7.88;;;;;;;24.06;14.15;94859.19;5086211;28;20032;-40
2022/03/15 11:05:10;;;;;;;9.45;8.00;;;;;;;24.16;13.94;94861.91;5071062;28;20477;-40
2022/03/15 11:07:37;;;;;;;9.75;8.20;;;;;;;23.90;13.52;94855.25;5071060;28;20020;-40
2022/03/15 11:10:15;;;;;;;17.17;13.30;;;;;;;23.45;13.78;94853.59;5070654;28;20021;-40
2022/03/15 11:12:54;;;;;;;12.35;9.25;;;;;;;23.85;13.59;94851.41;5070578;28;20486;-40
2022/03/15 11:15:20;;;;;;;;;;;;;;;24.16;14.36;94836.53;5071448;28;20033;-39
2022/03/15 11:17:46;;;;;;;15.27;8.07;;;;;;;23.79;15.00;94841.81;5053139;28;19931;-39
2022/03/15 11:20:12;;;;;;;19.20;8.27;;;;;;;23.41;14.24;94837.13;5053100;28;20024;-39